« Back
NWS Peachtree City, Ga » Text Product » MCN Terminal Aerodrome Forecast


Printer-friendly Version
Current Version              Previous Versions:   1  2  3  4  5  6  7  8  9  

Terminal Aerodrome Forecast

886
FTUS42 KFFC 181100
TAFMCN
TAF
KMCN 181131Z 1812/1912 04010KT P6SM -RA OVC060
     FM181300 04010KT P6SM -RA OVC040
     FM181400 05012G20KT P6SM -RA BKN025
     FM181600 05014G24KT 3SM SHRA BR OVC008
     FM190200 03018G28KT 2SM SHRA BR OVC008=

USA.gov is the U.S. government's official web portal to all federal, state and local government web resources and services.